APL Indonesia — V2EC7 — position and weather

sailwx.info

Track history (hours):
 
Tides and Currents Weather Stations Pressure Air Temp Water Temp Dewpoint Dewpoint Depression Visibility Wind Speed Wind Dir Waves Ship Positions

APL Indonesia

Last reported at 2014-Sep-14 03:31 UTC. Time now 2014-Oct-01 18:16 UTC.
Position N 25°41' W 080°02'.
Warning: this ship's position is 17 days out of date.

Length 261 m; draft 8.6 m.

Type: Ship (hazmat cat C). MMSI: 305386000.

Date/timePositionNaut miles runAvg speedWind from/ knotsBaromVisibWave heightAir tempDewpointWater temp
2014-Sep-14 03:31N 25°41' W 080°02'7 7.4
2014-Sep-14 02:33N 25°46' W 080°08'2 1.4
2014-Sep-14 01:22N 25°46' W 080°09'0 0.0
2014-Sep-13 20:10N 25°46' W 080°09'0 0.0
2014-Sep-13 19:28N 25°46' W 080°09'0 0.0
2014-Sep-13 10:14N 25°46' W 080°09'4 6.3
2014-Sep-13 09:33N 25°46' W 080°05'6 5.7
2014-Sep-13 08:33N 25°50' W 079°60'1110.5
2014-Sep-13 07:33N 25°59' W 079°54'1110.6
2014-Sep-13 06:33N 26°09' W 079°53'1110.8
2014-Sep-13 05:33N 26°20' W 079°52'1110.8
2014-Sep-13 04:33N 26°31' W 079°52'1110.9
2014-Sep-13 03:34N 26°42' W 079°52'1111.0
2014-Sep-13 02:34N 26°53' W 079°52'1110.6
2014-Sep-13 01:33N 27°03' W 079°52'  
2014-Sep-09 14:17N 38°60' W 073°52'912.1
2014-Sep-09 13:32N 39°09' W 073°52'1212.0
2014-Sep-09 12:31N 39°21' W 073°52'1212.3
2014-Sep-09 11:32N 39°33' W 073°52'1212.4
2014-Sep-09 10:33N 39°46' W 073°52'1312.5
2014-Sep-09 09:33N 39°58' W 073°51'1312.1
2014-Sep-09 08:27N 40°11' W 073°50'1112.1
2014-Sep-09 07:31N 40°23' W 073°49'10 9.8
2014-Sep-09 06:33N 40°30' W 073°57'1212.5
2014-Sep-09 05:33N 40°38' W 074°09'2 1.7
2014-Sep-09 04:31N 40°40' W 074°08'0 0.0
2014-Sep-09 03:31N 40°40' W 074°08'0 0.0
2014-Sep-09 02:31N 40°40' W 074°08'0 0.0
2014-Sep-09 01:31N 40°40' W 074°08'0 0.0
2014-Sep-09 00:31N 40°40' W 074°08'0 0.0
2014-Sep-08 23:31N 40°40' W 074°08'0 0.0
2014-Sep-08 22:31N 40°40' W 074°08'0 0.0
2014-Sep-08 21:33N 40°40' W 074°08'0 0.0
2014-Sep-08 20:33N 40°40' W 074°08'0 0.0
2014-Sep-08 19:33N 40°40' W 074°08'0 0.0
2014-Sep-08 18:33N 40°40' W 074°08'0 0.0
2014-Sep-08 17:33N 40°40' W 074°08'0 0.0
2014-Sep-08 16:33N 40°40' W 074°08'0 0.0
2014-Sep-08 15:33N 40°40' W 074°08'0 0.0
2014-Sep-08 14:33N 40°40' W 074°08'0 0.0
2014-Sep-08 13:33N 40°40' W 074°08'0 0.0
2014-Sep-08 12:33N 40°40' W 074°08'0 0.0
2014-Sep-08 11:33N 40°40' W 074°08'1 0.9
2014-Sep-08 10:32N 40°39' W 074°09'4 4.4
2014-Sep-08 09:33N 40°38' W 074°03'1511.4
2014-Sep-08 08:12N 40°27' W 073°49'6 9.1
2014-Sep-08 07:33N 40°21' W 073°47'1615.8
2014-Sep-08 06:33N 40°06' W 073°44'1716.6
2014-Sep-08 05:31N 39°49' W 073°41'1616.4
2014-Sep-08 04:33N 39°33' W 073°40'1616.0
2014-Sep-08 03:33N 39°17' W 073°40'1515.5
2014-Sep-08 02:34N 39°02' W 073°44'  
2014-Sep-05 07:16N 27°03' W 079°50'1419.9
2014-Sep-05 06:33N 26°49' W 079°50'2120.9
2014-Sep-05 05:33N 26°28' W 079°50'2120.6
2014-Sep-05 04:34N 26°07' W 079°49'2420.9
2014-Sep-05 03:25N 25°44' W 079°52'  
Track history (hours):
 
Tides and Currents Weather Stations Pressure Air Temp Water Temp Dewpoint Dewpoint Depression Visibility Wind Speed Wind Dir Waves Ship Positions

APL Indonesia

Last reported at 2014-Sep-14 03:31 UTC. Time now 2014-Oct-01 18:16 UTC.
Position N 25°41' W 080°02'.
Warning: this ship's position is 17 days out of date.

Length 261 m; draft 8.6 m.

Type: Ship (hazmat cat C). MMSI: 305386000.

Date/timePositionNaut miles runAvg speedWind from/ knotsBaromVisibWave heightAir tempDewpointWater temp
2014-Sep-14 03:31N 25°41' W 080°02'7 7.4
2014-Sep-14 02:33N 25°46' W 080°08'2 1.4
2014-Sep-14 01:22N 25°46' W 080°09'0 0.0
2014-Sep-13 20:10N 25°46' W 080°09'0 0.0
2014-Sep-13 19:28N 25°46' W 080°09'0 0.0
2014-Sep-13 10:14N 25°46' W 080°09'4 6.3
2014-Sep-13 09:33N 25°46' W 080°05'6 5.7
2014-Sep-13 08:33N 25°50' W 079°60'1110.5
2014-Sep-13 07:33N 25°59' W 079°54'1110.6
2014-Sep-13 06:33N 26°09' W 079°53'1110.8
2014-Sep-13 05:33N 26°20' W 079°52'1110.8
2014-Sep-13 04:33N 26°31' W 079°52'1110.9
2014-Sep-13 03:34N 26°42' W 079°52'1111.0
2014-Sep-13 02:34N 26°53' W 079°52'1110.6
2014-Sep-13 01:33N 27°03' W 079°52'  
2014-Sep-09 14:17N 38°60' W 073°52'912.1
2014-Sep-09 13:32N 39°09' W 073°52'1212.0
2014-Sep-09 12:31N 39°21' W 073°52'1212.3
2014-Sep-09 11:32N 39°33' W 073°52'1212.4
2014-Sep-09 10:33N 39°46' W 073°52'1312.5
2014-Sep-09 09:33N 39°58' W 073°51'1312.1
2014-Sep-09 08:27N 40°11' W 073°50'1112.1
2014-Sep-09 07:31N 40°23' W 073°49'10 9.8
2014-Sep-09 06:33N 40°30' W 073°57'1212.5
2014-Sep-09 05:33N 40°38' W 074°09'2 1.7
2014-Sep-09 04:31N 40°40' W 074°08'0 0.0
2014-Sep-09 03:31N 40°40' W 074°08'0 0.0
2014-Sep-09 02:31N 40°40' W 074°08'0 0.0
2014-Sep-09 01:31N 40°40' W 074°08'0 0.0
2014-Sep-09 00:31N 40°40' W 074°08'0 0.0
2014-Sep-08 23:31N 40°40' W 074°08'0 0.0
2014-Sep-08 22:31N 40°40' W 074°08'0 0.0
2014-Sep-08 21:33N 40°40' W 074°08'0 0.0
2014-Sep-08 20:33N 40°40' W 074°08'0 0.0
2014-Sep-08 19:33N 40°40' W 074°08'0 0.0
2014-Sep-08 18:33N 40°40' W 074°08'0 0.0
2014-Sep-08 17:33N 40°40' W 074°08'0 0.0
2014-Sep-08 16:33N 40°40' W 074°08'0 0.0
2014-Sep-08 15:33N 40°40' W 074°08'0 0.0
2014-Sep-08 14:33N 40°40' W 074°08'0 0.0
2014-Sep-08 13:33N 40°40' W 074°08'0 0.0
2014-Sep-08 12:33N 40°40' W 074°08'0 0.0
2014-Sep-08 11:33N 40°40' W 074°08'1 0.9
2014-Sep-08 10:32N 40°39' W 074°09'4 4.4
2014-Sep-08 09:33N 40°38' W 074°03'1511.4
2014-Sep-08 08:12N 40°27' W 073°49'6 9.1
2014-Sep-08 07:33N 40°21' W 073°47'1615.8
2014-Sep-08 06:33N 40°06' W 073°44'1716.6
2014-Sep-08 05:31N 39°49' W 073°41'1616.4
2014-Sep-08 04:33N 39°33' W 073°40'1616.0
2014-Sep-08 03:33N 39°17' W 073°40'1515.5
2014-Sep-08 02:34N 39°02' W 073°44'  
2014-Sep-05 07:16N 27°03' W 079°50'1419.9
2014-Sep-05 06:33N 26°49' W 079°50'2120.9
2014-Sep-05 05:33N 26°28' W 079°50'2120.6
2014-Sep-05 04:34N 26°07' W 079°49'2420.9
2014-Sep-05 03:25N 25°44' W 079°52'  

Dump ship's entire track history